Time;durP1;ratioP1;P1;durP2;ratioP2;P2;SDS_P1;SDS_P2;PMS_P1;PMS_P2;Temp;Humidity;BMP_temperature;BMP_pressure;BME280_temperature;BME280_humidity;BME280_pressure;Samples;Min_cycle;Max_cycle;Signal;HPM_P1;HPM_P2
2022/10/09 00:02:16;;;;;;;8.30;2.40;;;;;;;;;;5134628;27;20454;-69
2022/10/09 00:04:43;;;;;;;8.60;2.00;;;;;;;;;;5134219;27;20555;-69
2022/10/09 00:07:10;;;;;;;4.57;2.00;;;;;;;;;;5130156;27;20970;-69
2022/10/09 00:09:38;;;;;;;4.77;3.20;;;;;;;;;;5133532;27;20544;-69
2022/10/09 00:12:05;;;;;;;6.33;2.57;;;;;;;;;;5134552;27;20545;-69
2022/10/09 00:14:38;;;;;;;7.63;2.10;;;;;;;;;;5133738;27;20533;-69
2022/10/09 00:17:05;;;;;;;6.17;2.13;;;;;;;;;;5119955;28;20470;-69
2022/10/09 00:19:33;;;;;;;5.87;2.43;;;;;;;;;;5114195;28;20503;-69
2022/10/09 00:22:00;;;;;;;5.10;2.13;;;;;;;;;;5117551;28;20738;-69
2022/10/09 00:24:27;;;;;;;8.90;2.23;;;;;;;;;;5117174;28;20442;-69
2022/10/09 00:26:54;;;;;;;4.60;1.27;;;;;;;;;;5116762;28;20905;-69
2022/10/09 00:29:22;;;;;;;4.17;1.80;;;;;;;;;;5116293;28;20451;-69
2022/10/09 00:31:49;;;;;;;4.83;1.80;;;;;;;;;;5116760;28;20443;-69
2022/10/09 00:34:17;;;;;;;7.00;1.90;;;;;;;;;;5116005;28;20474;-69
2022/10/09 00:36:45;;;;;;;3.87;1.90;;;;;;;;;;5116250;28;20890;-69
2022/10/09 00:39:12;;;;;;;6.67;2.60;;;;;;;;;;5116895;28;20565;-69
2022/10/09 00:41:40;;;;;;;5.40;1.83;;;;;;;;;;5116753;28;20453;-69
2022/10/09 00:44:22;;;;;;;6.57;2.20;;;;;;;;;;5116493;28;20470;-69
2022/10/09 00:46:51;;;;;;;16.93;2.33;;;;;;;;;;5116289;28;20459;-69
2022/10/09 00:49:20;;;;;;;12.13;2.43;;;;;;;;;;5117202;28;20446;-69
2022/10/09 00:51:49;;;;;;;6.03;1.30;;;;;;;;;;5116969;28;20453;-69
2022/10/09 00:54:18;;;;;;;9.80;1.80;;;;;;;;;;5116437;28;20523;-69
2022/10/09 00:56:45;;;;;;;4.30;1.53;;;;;;;;;;5116420;28;20538;-69
2022/10/09 00:59:16;;;;;;;9.27;2.17;;;;;;;;;;5116703;28;20498;-69
2022/10/09 01:01:44;;;;;;;9.83;2.27;;;;;;;;;;5116668;28;20450;-69
2022/10/09 01:04:11;;;;;;;11.47;3.03;;;;;;;;;;5115899;28;20540;-69
2022/10/09 01:06:43;;;;;;;5.07;2.20;;;;;;;;;;5115335;28;20445;-69
2022/10/09 01:09:13;;;;;;;3.43;2.37;;;;;;;;;;5116432;28;20458;-69
2022/10/09 01:11:47;;;;;;;8.70;2.20;;;;;;;;;;5116963;28;20509;-69
2022/10/09 01:14:18;;;;;;;11.30;2.43;;;;;;;;;;5116925;28;20455;-69
2022/10/09 01:16:48;;;;;;;9.47;2.93;;;;;;;;;;5116257;28;20459;-69
2022/10/09 01:19:22;;;;;;;3.60;2.33;;;;;;;;;;5117289;28;20495;-69
2022/10/09 01:21:54;;;;;;;8.20;2.60;;;;;;;;;;5117420;28;20455;-69
2022/10/09 01:24:25;;;;;;;5.07;2.00;;;;;;;;;;5115420;28;20447;-69
2022/10/09 01:27:05;;;;;;;6.03;2.00;;;;;;;;;;5116313;28;20721;-69
2022/10/09 01:29:34;;;;;;;5.70;2.00;;;;;;;;;;5116212;28;20489;-69
2022/10/09 01:32:02;;;;;;;10.13;2.40;;;;;;;;;;5115816;28;20871;-69
2022/10/09 01:34:30;;;;;;;13.97;3.53;;;;;;;;;;5116281;28;20738;-69
2022/10/09 01:36:57;;;;;;;6.10;1.77;;;;;;;;;;5116035;28;20491;-69
2022/10/09 01:39:25;;;;;;;14.10;2.90;;;;;;;;;;5116328;28;20494;-69
2022/10/09 01:41:54;;;;;;;8.00;2.27;;;;;;;;;;5116561;28;20548;-69
2022/10/09 01:44:23;;;;;;;5.00;1.83;;;;;;;;;;5116182;28;20808;-69
2022/10/09 01:46:50;;;;;;;4.93;2.13;;;;;;;;;;5117659;28;20462;-69
2022/10/09 01:49:20;;;;;;;6.73;1.90;;;;;;;;;;5116050;28;20427;-69
2022/10/09 01:51:55;;;;;;;7.07;1.63;;;;;;;;;;5117780;28;20478;-70
2022/10/09 01:54:28;;;;;;;14.07;2.57;;;;;;;;;;5117169;28;20486;-69
2022/10/09 01:56:56;;;;;;;7.10;2.13;;;;;;;;;;5116708;28;20869;-69
2022/10/09 01:59:24;;;;;;;8.20;1.87;;;;;;;;;;5115955;28;20486;-69
2022/10/09 02:01:51;;;;;;;6.27;2.20;;;;;;;;;;5116232;28;20870;-69
2022/10/09 02:04:19;;;;;;;8.20;1.53;;;;;;;;;;5115944;28;20442;-69
2022/10/09 02:06:47;;;;;;;13.80;2.43;;;;;;;;;;5116872;28;20469;-69
2022/10/09 02:09:15;;;;;;;8.33;2.40;;;;;;;;;;5116390;28;20450;-69
2022/10/09 02:11:47;;;;;;;4.90;2.17;;;;;;;;;;5116107;28;20598;-69
2022/10/09 02:14:14;;;;;;;6.23;2.20;;;;;;;;;;5116325;28;20717;-69
2022/10/09 02:16:44;;;;;;;10.00;2.77;;;;;;;;;;5115896;28;20485;-69
2022/10/09 02:19:13;;;;;;;8.30;2.20;;;;;;;;;;5114912;28;21058;-69
2022/10/09 02:21:43;;;;;;;6.73;1.93;;;;;;;;;;5115834;28;20454;-69
2022/10/09 02:24:11;;;;;;;4.33;1.57;;;;;;;;;;5116059;28;20451;-69
2022/10/09 02:26:39;;;;;;;9.17;3.10;;;;;;;;;;5116008;28;20554;-69
2022/10/09 02:29:06;;;;;;;4.40;1.90;;;;;;;;;;5116077;28;20491;-69
2022/10/09 02:31:35;;;;;;;8.33;1.40;;;;;;;;;;5115757;28;20450;-69
2022/10/09 02:34:04;;;;;;;7.97;1.60;;;;;;;;;;5115930;28;20838;-69
2022/10/09 02:36:32;;;;;;;4.60;1.73;;;;;;;;;;5119832;27;20756;-69
2022/10/09 02:38:59;;;;;;;6.70;2.20;;;;;;;;;;5137814;27;20531;-70
2022/10/09 02:41:26;;;;;;;4.93;1.80;;;;;;;;;;5136830;27;20462;-69
2022/10/09 02:43:54;;;;;;;4.97;1.70;;;;;;;;;;5135148;27;20438;-69
2022/10/09 02:46:21;;;;;;;5.07;1.87;;;;;;;;;;5135457;27;20575;-69
2022/10/09 02:48:48;;;;;;;6.30;1.70;;;;;;;;;;5136561;27;20449;-70
2022/10/09 02:51:16;;;;;;;7.50;1.80;;;;;;;;;;5136521;27;20461;-69
2022/10/09 02:53:44;;;;;;;6.23;2.23;;;;;;;;;;5136189;27;20466;-69
2022/10/09 02:56:11;;;;;;;3.50;1.53;;;;;;;;;;5135321;27;20464;-70
2022/10/09 02:58:38;;;;;;;4.67;1.70;;;;;;;;;;5135997;27;20477;-70
2022/10/09 03:01:05;;;;;;;4.80;1.43;;;;;;;;;;5135625;27;20529;-69
2022/10/09 03:03:32;;;;;;;4.20;1.30;;;;;;;;;;5136643;27;20500;-69
2022/10/09 03:06:00;;;;;;;2.90;1.60;;;;;;;;;;5134883;27;20863;-69
2022/10/09 03:08:29;;;;;;;13.17;1.63;;;;;;;;;;5134866;27;20711;-73
2022/10/09 03:10:56;;;;;;;5.53;1.80;;;;;;;;;;5135939;27;20458;-70
2022/10/09 03:13:23;;;;;;;8.80;2.10;;;;;;;;;;5135258;27;20726;-70
2022/10/09 03:15:50;;;;;;;5.70;1.40;;;;;;;;;;5135755;27;20461;-70
2022/10/09 03:18:17;;;;;;;2.67;1.33;;;;;;;;;;5124619;27;20535;-69
2022/10/09 03:20:45;;;;;;;4.03;1.73;;;;;;;;;;5120117;28;20476;-70
2022/10/09 03:23:12;;;;;;;4.40;1.57;;;;;;;;;;5136987;27;20854;-69
2022/10/09 03:25:40;;;;;;;18.43;2.70;;;;;;;;;;5135846;27;20473;-70
2022/10/09 03:28:07;;;;;;;5.90;1.83;;;;;;;;;;5135035;27;20450;-70
2022/10/09 03:30:34;;;;;;;5.90;2.10;;;;;;;;;;5135164;27;20484;-70
2022/10/09 03:33:01;;;;;;;2.87;1.60;;;;;;;;;;5135270;27;20441;-69
2022/10/09 03:35:28;;;;;;;6.57;2.20;;;;;;;;;;5135723;27;20873;-69
2022/10/09 03:37:55;;;;;;;4.60;1.43;;;;;;;;;;5134960;27;20446;-69
2022/10/09 03:40:23;;;;;;;4.63;1.50;;;;;;;;;;5135738;27;20502;-70
2022/10/09 03:42:53;;;;;;;4.70;3.27;;;;;;;;;;5135892;27;20860;-70
2022/10/09 03:45:20;;;;;;;9.07;2.97;;;;;;;;;;5134983;27;20446;-69
2022/10/09 03:47:47;;;;;;;5.57;1.80;;;;;;;;;;5136310;27;20454;-69
2022/10/09 03:50:14;;;;;;;6.10;1.50;;;;;;;;;;5135306;27;20480;-70
2022/10/09 03:52:41;;;;;;;4.97;1.87;;;;;;;;;;5135473;27;20449;-70
2022/10/09 03:55:09;;;;;;;9.30;2.07;;;;;;;;;;5137717;27;20552;-69
2022/10/09 03:57:36;;;;;;;4.17;1.40;;;;;;;;;;5137677;27;20536;-70
2022/10/09 04:00:06;;;;;;;8.07;1.77;;;;;;;;;;5138055;27;20477;-69
2022/10/09 04:02:34;;;;;;;5.43;1.77;;;;;;;;;;5138784;27;20504;-70
2022/10/09 04:05:01;;;;;;;4.33;1.37;;;;;;;;;;5138869;27;20502;-70
2022/10/09 04:07:32;;;;;;;6.60;3.13;;;;;;;;;;5135914;27;20530;-70
2022/10/09 04:09:59;;;;;;;2.27;1.10;;;;;;;;;;5133860;27;20549;-70
2022/10/09 04:12:26;;;;;;;13.80;1.73;;;;;;;;;;5137970;27;20457;-70
2022/10/09 04:14:53;;;;;;;4.37;1.67;;;;;;;;;;5138887;27;20735;-69
2022/10/09 04:17:21;;;;;;;6.00;1.50;;;;;;;;;;5138066;27;20458;-69
2022/10/09 04:19:48;;;;;;;6.47;2.00;;;;;;;;;;5137918;27;20486;-70
2022/10/09 04:22:15;;;;;;;3.30;1.70;;;;;;;;;;5138865;27;20460;-70
2022/10/09 04:24:42;;;;;;;8.30;2.10;;;;;;;;;;5138487;27;20437;-69
2022/10/09 04:27:09;;;;;;;11.50;1.97;;;;;;;;;;5138904;27;20488;-69
2022/10/09 04:29:37;;;;;;;4.57;1.47;;;;;;;;;;5138370;27;20464;-70
2022/10/09 04:32:04;;;;;;;7.47;1.90;;;;;;;;;;5138827;27;20450;-70
2022/10/09 04:34:32;;;;;;;6.67;1.70;;;;;;;;;;5138427;27;20450;-70
2022/10/09 04:36:59;;;;;;;5.57;1.50;;;;;;;;;;5138363;27;20469;-70
2022/10/09 04:39:26;;;;;;;5.43;2.50;;;;;;;;;;5138411;27;20588;-70
2022/10/09 04:41:53;;;;;;;4.13;1.47;;;;;;;;;;5137396;27;20468;-69
2022/10/09 04:44:20;;;;;;;3.43;1.37;;;;;;;;;;5138306;27;20557;-69
2022/10/09 04:46:50;;;;;;;7.93;2.30;;;;;;;;;;5136271;27;20496;-70
2022/10/09 04:49:18;;;;;;;6.30;1.90;;;;;;;;;;5133387;27;20482;-69
2022/10/09 04:51:45;;;;;;;4.60;1.63;;;;;;;;;;5137333;27;20479;-69
2022/10/09 04:54:12;;;;;;;4.07;1.47;;;;;;;;;;5137738;27;20453;-69
2022/10/09 04:56:39;;;;;;;2.60;1.50;;;;;;;;;;5137337;27;20454;-69
2022/10/09 04:59:07;;;;;;;2.77;1.47;;;;;;;;;;5137781;27;20572;-69
2022/10/09 05:01:34;;;;;;;5.77;1.90;;;;;;;;;;5138012;27;20709;-70
2022/10/09 05:04:01;;;;;;;7.37;1.73;;;;;;;;;;5137496;27;20733;-69
2022/10/09 05:06:28;;;;;;;6.90;2.23;;;;;;;;;;5137590;27;20814;-70
2022/10/09 05:08:56;;;;;;;2.80;1.30;;;;;;;;;;5138038;27;20496;-69
2022/10/09 05:11:24;;;;;;;4.30;1.77;;;;;;;;;;5137239;27;20858;-70
2022/10/09 05:13:52;;;;;;;12.10;2.13;;;;;;;;;;5137718;27;20446;-70
2022/10/09 05:16:21;;;;;;;4.33;1.50;;;;;;;;;;5126621;27;20469;-69
2022/10/09 05:18:49;;;;;;;5.23;1.57;;;;;;;;;;5117038;28;20486;-69
2022/10/09 05:21:16;;;;;;;5.73;2.57;;;;;;;;;;5133918;27;20492;-70
2022/10/09 05:23:44;;;;;;;5.53;1.93;;;;;;;;;;5137188;27;20457;-69
2022/10/09 05:26:12;;;;;;;3.77;1.40;;;;;;;;;;5136598;27;20869;-70
2022/10/09 05:28:39;;;;;;;2.77;1.90;;;;;;;;;;5136502;27;20514;-70
2022/10/09 05:31:07;;;;;;;6.70;2.00;;;;;;;;;;5136386;27;20741;-69
2022/10/09 05:33:34;;;;;;;3.47;1.40;;;;;;;;;;5137030;27;20445;-70
2022/10/09 05:36:02;;;;;;;4.70;1.90;;;;;;;;;;5137466;27;20549;-69
2022/10/09 05:38:29;;;;;;;11.47;2.57;;;;;;;;;;5136576;27;20901;-69
2022/10/09 05:40:57;;;;;;;5.00;2.30;;;;;;;;;;5136571;27;20556;-69
2022/10/09 05:43:25;;;;;;;4.77;1.90;;;;;;;;;;5136735;27;20815;-69
2022/10/09 05:45:52;;;;;;;6.07;2.30;;;;;;;;;;5136310;27;20461;-70
2022/10/09 05:48:19;;;;;;;6.50;2.43;;;;;;;;;;5136921;27;20504;-70
2022/10/09 05:50:49;;;;;;;2.30;1.70;;;;;;;;;;5125423;28;20482;-69
2022/10/09 05:53:16;;;;;;;12.40;2.90;;;;;;;;;;5136599;27;20525;-69
2022/10/09 05:55:43;;;;;;;6.77;2.30;;;;;;;;;;5136840;27;20446;-70
2022/10/09 05:58:10;;;;;;;5.90;2.23;;;;;;;;;;5135649;27;20457;-69
2022/10/09 06:00:38;;;;;;;3.07;1.30;;;;;;;;;;5135416;27;20465;-69
2022/10/09 06:03:05;;;;;;;6.00;1.80;;;;;;;;;;5136312;27;20560;-69
2022/10/09 06:05:32;;;;;;;12.07;2.60;;;;;;;;;;5137107;27;20540;-70
2022/10/09 06:07:59;;;;;;;6.90;2.10;;;;;;;;;;5136318;27;20953;-69
2022/10/09 06:10:26;;;;;;;9.03;2.20;;;;;;;;;;5136033;27;20533;-69
2022/10/09 06:12:54;;;;;;;3.10;1.53;;;;;;;;;;5136147;27;20469;-70
2022/10/09 06:15:21;;;;;;;8.83;2.27;;;;;;;;;;5136811;27;20510;-69
2022/10/09 06:17:49;;;;;;;7.63;3.13;;;;;;;;;;5135231;27;20458;-70
2022/10/09 06:20:15;;;;;;;6.73;2.17;;;;;;;;;;5128532;27;20558;-69
2022/10/09 06:22:43;;;;;;;9.17;2.67;;;;;;;;;;5121814;27;20544;-70
2022/10/09 06:25:10;;;;;;;9.60;2.97;;;;;;;;;;5136608;27;20446;-70
2022/10/09 06:27:46;;;;;;;3.67;1.80;;;;;;;;;;5135202;27;20457;-69
2022/10/09 06:30:13;;;;;;;5.43;2.17;;;;;;;;;;5135377;27;20456;-69
2022/10/09 06:32:40;;;;;;;3.30;1.80;;;;;;;;;;5134917;27;20460;-70
2022/10/09 06:35:09;;;;;;;2.80;1.70;;;;;;;;;;5135350;27;20450;-70
2022/10/09 06:37:37;;;;;;;5.30;2.50;;;;;;;;;;5135522;27;20760;-70
2022/10/09 06:40:05;;;;;;;8.40;2.43;;;;;;;;;;5115339;28;20495;-70
2022/10/09 06:42:32;;;;;;;7.33;2.00;;;;;;;;;;5118409;27;20855;-70
2022/10/09 06:44:59;;;;;;;6.07;1.77;;;;;;;;;;5115594;28;20603;-69
2022/10/09 06:47:26;;;;;;;9.20;2.80;;;;;;;;;;5117500;27;20462;-70
2022/10/09 06:49:54;;;;;;;11.63;3.50;;;;;;;;;;5118482;28;20490;-70
2022/10/09 06:52:22;;;;;;;5.00;2.50;;;;;;;;;;5133100;27;20458;-70
2022/10/09 06:54:49;;;;;;;6.33;2.47;;;;;;;;;;5135816;27;20461;-70
2022/10/09 06:57:16;;;;;;;4.00;2.03;;;;;;;;;;5116507;28;20467;-70
2022/10/09 06:59:43;;;;;;;3.80;2.00;;;;;;;;;;5115772;28;20574;-70
2022/10/09 07:02:10;;;;;;;5.07;2.60;;;;;;;;;;5120467;27;20445;-70
2022/10/09 07:04:37;;;;;;;16.63;2.53;;;;;;;;;;5126448;28;20952;-70
2022/10/09 07:07:04;;;;;;;6.30;2.87;;;;;;;;;;5115634;28;20871;-70
2022/10/09 07:09:32;;;;;;;3.90;2.10;;;;;;;;;;5127879;27;20534;-69
2022/10/09 07:11:59;;;;;;;4.73;2.23;;;;;;;;;;5135970;27;20458;-70
2022/10/09 07:14:26;;;;;;;7.00;2.80;;;;;;;;;;5135027;27;20507;-69
2022/10/09 07:16:53;;;;;;;5.73;2.33;;;;;;;;;;5132530;27;20462;-70
2022/10/09 07:19:20;;;;;;;5.13;2.50;;;;;;;;;;5122161;27;20489;-69
2022/10/09 07:21:48;;;;;;;5.70;2.97;;;;;;;;;;5116136;27;20465;-70
2022/10/09 07:24:20;;;;;;;4.87;2.27;;;;;;;;;;5116008;27;20473;-70
2022/10/09 07:26:48;;;;;;;4.00;2.20;;;;;;;;;;5120804;27;20453;-69
2022/10/09 07:29:15;;;;;;;5.27;2.90;;;;;;;;;;5134940;27;20469;-70
2022/10/09 07:31:43;;;;;;;3.03;1.70;;;;;;;;;;5138017;27;20465;-70
2022/10/09 07:34:10;;;;;;;6.70;2.63;;;;;;;;;;5138830;27;20450;-69
2022/10/09 07:36:37;;;;;;;4.77;2.40;;;;;;;;;;5135609;27;20810;-70
2022/10/09 07:39:05;;;;;;;7.07;2.57;;;;;;;;;;5122885;27;20514;-70
2022/10/09 07:41:32;;;;;;;7.07;4.70;;;;;;;;;;5115908;28;20438;-70
2022/10/09 07:44:01;;;;;;;10.00;3.90;;;;;;;;;;5117580;28;20454;-70
2022/10/09 07:46:28;;;;;;;16.30;7.93;;;;;;;;;;5119612;28;20836;-70
2022/10/09 07:48:56;;;;;;;5.30;3.10;;;;;;;;;;5117280;28;20890;-70
2022/10/09 07:51:24;;;;;;;5.07;2.50;;;;;;;;;;5117177;28;20453;-69
2022/10/09 07:53:51;;;;;;;5.23;2.80;;;;;;;;;;5118240;28;20458;-70
2022/10/09 07:56:19;;;;;;;6.73;3.10;;;;;;;;;;5117736;27;20540;-69
2022/10/09 07:58:49;;;;;;;6.17;2.50;;;;;;;;;;5128896;28;20547;-68
2022/10/09 08:01:17;;;;;;;8.63;3.10;;;;;;;;;;5120399;28;20917;-69
2022/10/09 08:03:44;;;;;;;4.80;2.93;;;;;;;;;;5118027;28;20455;-68
2022/10/09 08:06:11;;;;;;;7.17;3.30;;;;;;;;;;5119437;28;20473;-69
2022/10/09 08:08:38;;;;;;;9.37;4.30;;;;;;;;;;5117443;28;20939;-69
2022/10/09 08:11:09;;;;;;;5.13;2.70;;;;;;;;;;5115793;28;20447;-68
2022/10/09 08:13:36;;;;;;;7.47;3.63;;;;;;;;;;5122028;27;21011;-70
2022/10/09 08:16:03;;;;;;;7.20;2.90;;;;;;;;;;5117104;28;20443;-69
2022/10/09 08:18:33;;;;;;;5.87;3.00;;;;;;;;;;5115941;28;20489;-69
2022/10/09 08:21:04;;;;;;;7.93;3.17;;;;;;;;;;5116157;28;20535;-70
2022/10/09 08:23:32;;;;;;;5.93;3.03;;;;;;;;;;5117125;28;20493;-69
2022/10/09 08:25:59;;;;;;;9.57;2.83;;;;;;;;;;5126723;27;20473;-69
2022/10/09 08:28:26;;;;;;;7.07;2.60;;;;;;;;;;5119454;28;20469;-69
2022/10/09 08:30:53;;;;;;;4.50;3.03;;;;;;;;;;5125773;27;20454;-69
2022/10/09 08:33:22;;;;;;;7.73;3.70;;;;;;;;;;5118953;28;20459;-69
2022/10/09 08:35:50;;;;;;;6.57;3.03;;;;;;;;;;5117539;28;20455;-70
2022/10/09 08:38:17;;;;;;;5.40;2.83;;;;;;;;;;5115289;28;20497;-70
2022/10/09 08:40:47;;;;;;;7.50;3.40;;;;;;;;;;5116800;28;20541;-70
2022/10/09 08:43:17;;;;;;;4.90;3.00;;;;;;;;;;5117276;28;20716;-70
2022/10/09 08:45:45;;;;;;;6.33;3.60;;;;;;;;;;5120714;28;20537;-69
2022/10/09 08:48:15;;;;;;;8.97;4.33;;;;;;;;;;5117059;28;20473;-70
2022/10/09 08:50:46;;;;;;;6.33;2.43;;;;;;;;;;5117189;28;20526;-70
2022/10/09 08:53:18;;;;;;;4.60;2.73;;;;;;;;;;5117695;28;20527;-70
2022/10/09 08:55:47;;;;;;;7.53;2.63;;;;;;;;;;5119303;28;20531;-70
2022/10/09 08:58:16;;;;;;;7.50;2.77;;;;;;;;;;5116531;27;20490;-68
2022/10/09 09:00:45;;;;;;;7.20;2.50;;;;;;;;;;5116277;28;20466;-69
2022/10/09 09:03:28;;;;;;;5.33;2.20;;;;;;;;;;5111033;28;20459;-68
2022/10/09 09:05:59;;;;;;;7.43;2.60;;;;;;;;;;5113861;28;20450;-70
2022/10/09 09:08:32;;;;;;;10.20;2.40;;;;;;;;;;5113670;28;20493;-70
2022/10/09 09:11:12;;;;;;;6.53;2.30;;;;;;;;;;5112315;28;20733;-70
2022/10/09 09:13:44;;;;;;;7.87;2.23;;;;;;;;;;5127423;28;20531;-70
2022/10/09 09:16:15;;;;;;;14.30;2.50;;;;;;;;;;5113832;28;20497;-69
2022/10/09 09:18:45;;;;;;;4.50;2.00;;;;;;;;;;5115941;28;20489;-69
2022/10/09 09:21:16;;;;;;;3.83;1.90;;;;;;;;;;5117390;28;20463;-69
2022/10/09 09:23:47;;;;;;;6.70;1.83;;;;;;;;;;5116478;28;20546;-70
2022/10/09 09:26:16;;;;;;;4.37;1.73;;;;;;;;;;5121929;28;20486;-69
2022/10/09 09:28:44;;;;;;;3.80;1.53;;;;;;;;;;5117918;28;20463;-69
2022/10/09 09:31:15;;;;;;;7.80;2.47;;;;;;;;;;5132405;27;20461;-69
2022/10/09 09:33:44;;;;;;;10.47;2.30;;;;;;;;;;5131232;27;21107;-69
2022/10/09 09:36:14;;;;;;;11.03;2.50;;;;;;;;;;5115169;28;21045;-69
2022/10/09 09:38:50;;;;;;;6.47;2.40;;;;;;;;;;5128793;27;20763;-69
2022/10/09 09:41:18;;;;;;;7.30;2.03;;;;;;;;;;5136352;27;20488;-69
2022/10/09 09:43:45;;;;;;;7.53;1.80;;;;;;;;;;5132208;27;20466;-69
2022/10/09 09:46:14;;;;;;;6.77;1.73;;;;;;;;;;5132003;27;20473;-69
2022/10/09 09:48:42;;;;;;;4.80;1.43;;;;;;;;;;5119919;27;20744;-69
2022/10/09 09:51:14;;;;;;;5.43;2.00;;;;;;;;;;5116810;28;20455;-69
2022/10/09 09:53:42;;;;;;;3.53;1.60;;;;;;;;;;5117626;28;20457;-70
2022/10/09 09:56:10;;;;;;;5.03;1.53;;;;;;;;;;5114041;28;20635;-71
2022/10/09 09:58:40;;;;;;;6.87;1.50;;;;;;;;;;5115634;27;20447;-70
2022/10/09 10:01:07;;;;;;;3.00;1.40;;;;;;;;;;5114482;27;20466;-70
2022/10/09 10:03:35;;;;;;;7.20;2.00;;;;;;;;;;5115227;28;20623;-70
2022/10/09 10:06:02;;;;;;;6.53;2.03;;;;;;;;;;5133654;27;20462;-70
2022/10/09 10:08:31;;;;;;;7.50;1.43;;;;;;;;;;5135459;27;20965;-70
2022/10/09 10:10:59;;;;;;;6.03;1.87;;;;;;;;;;5124631;27;20605;-70
2022/10/09 10:13:30;;;;;;;5.60;1.40;;;;;;;;;;5130309;28;20458;-70
2022/10/09 10:15:58;;;;;;;4.93;2.73;;;;;;;;;;5118793;27;20462;-69
2022/10/09 10:18:31;;;;;;;6.63;2.83;;;;;;;;;;5134036;27;20454;-71
2022/10/09 10:21:05;;;;;;;4.70;1.70;;;;;;;;;;5127239;27;20803;-70
2022/10/09 10:23:38;;;;;;;6.07;1.17;;;;;;;;;;5132452;27;20613;-70
2022/10/09 10:26:07;;;;;;;7.37;3.50;;;;;;;;;;5132651;27;20454;-69
2022/10/09 10:28:37;;;;;;;4.57;1.40;;;;;;;;;;5132769;27;20886;-70
2022/10/09 10:31:06;;;;;;;5.40;1.80;;;;;;;;;;5114883;28;20541;-70
2022/10/09 10:33:34;;;;;;;11.77;2.67;;;;;;;;;;5115814;28;20527;-70
2022/10/09 10:36:01;;;;;;;8.20;2.57;;;;;;;;;;5112325;28;20450;-70
2022/10/09 10:38:31;;;;;;;7.23;2.03;;;;;;;;;;5133663;27;20457;-70
2022/10/09 10:41:02;;;;;;;9.57;2.40;;;;;;;;;;5136021;27;20561;-70
2022/10/09 10:43:33;;;;;;;4.37;2.17;;;;;;;;;;5126883;27;20465;-70
2022/10/09 10:46:03;;;;;;;4.60;1.23;;;;;;;;;;5119891;28;20447;-69
2022/10/09 10:48:31;;;;;;;5.63;1.67;;;;;;;;;;5126089;27;20466;-70
2022/10/09 10:51:02;;;;;;;5.87;1.43;;;;;;;;;;5135029;27;20476;-70
2022/10/09 10:53:36;;;;;;;4.57;1.30;;;;;;;;;;5128907;27;20452;-70
2022/10/09 10:56:06;;;;;;;6.50;1.70;;;;;;;;;;5114464;28;20738;-71
2022/10/09 10:58:42;;;;;;;8.70;2.13;;;;;;;;;;5125848;27;20460;-70
2022/10/09 11:01:19;;;;;;;4.17;1.23;;;;;;;;;;5129208;27;20493;-70
2022/10/09 11:04:02;;;;;;;8.07;2.07;;;;;;;;;;5121359;27;20467;-71
2022/10/09 11:06:36;;;;;;;5.13;1.27;;;;;;;;;;5107184;28;20465;-70
2022/10/09 11:09:09;;;;;;;5.27;1.40;;;;;;;;;;5126297;27;20938;-71
2022/10/09 11:11:40;;;;;;;4.13;1.20;;;;;;;;;;5115206;28;20886;-70
2022/10/09 11:14:15;;;;;;;6.20;1.43;;;;;;;;;;5113938;28;20466;-70
2022/10/09 11:16:48;;;;;;;3.70;1.40;;;;;;;;;;5114035;28;20472;-70
2022/10/09 11:19:24;;;;;;;12.77;5.47;;;;;;;;;;5113345;28;20498;-70
2022/10/09 11:21:56;;;;;;;3.60;0.90;;;;;;;;;;5126127;27;21116;-70
2022/10/09 11:24:41;;;;;;;4.20;0.93;;;;;;;;;;5121902;28;20470;-71
2022/10/09 11:27:12;;;;;;;10.33;1.30;;;;;;;;;;5113952;28;20490;-70
2022/10/09 11:29:41;;;;;;;5.50;1.40;;;;;;;;;;5113365;28;20757;-71
2022/10/09 11:32:13;;;;;;;6.60;1.40;;;;;;;;;;5129038;27;20789;-70
2022/10/09 11:34:43;;;;;;;2.83;1.20;;;;;;;;;;5121512;28;20468;-70
2022/10/09 11:37:15;;;;;;;6.40;2.00;;;;;;;;;;5112617;28;20787;-71
2022/10/09 11:39:42;;;;;;;5.53;1.73;;;;;;;;;;5113845;28;20486;-71
2022/10/09 11:42:16;;;;;;;5.43;1.47;;;;;;;;;;5118937;28;20740;-71
2022/10/09 11:44:48;;;;;;;4.33;2.03;;;;;;;;;;5123518;28;20485;-70
2022/10/09 11:47:19;;;;;;;4.53;1.00;;;;;;;;;;5133367;27;20457;-70
2022/10/09 11:49:54;;;;;;;5.93;1.00;;;;;;;;;;5133541;27;20553;-70
2022/10/09 11:52:25;;;;;;;6.50;1.97;;;;;;;;;;5121235;27;21044;-69
2022/10/09 11:54:52;;;;;;;6.80;2.00;;;;;;;;;;5114372;28;21637;-69
2022/10/09 11:57:27;;;;;;;7.00;1.93;;;;;;;;;;5113605;28;20461;-69
2022/10/09 12:00:04;;;;;;;4.27;2.07;;;;;;;;;;5112961;28;20756;-69
2022/10/09 12:02:31;;;;;;;12.87;2.20;;;;;;;;;;5115708;28;20462;-70
2022/10/09 12:04:59;;;;;;;3.47;1.33;;;;;;;;;;5112255;28;20510;-69
2022/10/09 12:07:31;;;;;;;3.77;1.30;;;;;;;;;;5111055;28;21014;-70
2022/10/09 12:10:00;;;;;;;2.83;0.90;;;;;;;;;;5113293;28;20508;-71
2022/10/09 12:12:31;;;;;;;3.20;1.30;;;;;;;;;;5120530;28;20458;-72
2022/10/09 12:14:58;;;;;;;4.53;1.10;;;;;;;;;;5121687;28;20443;-71
2022/10/09 12:17:37;;;;;;;3.83;2.10;;;;;;;;;;5115638;28;20463;-71
2022/10/09 12:20:06;;;;;;;3.27;1.30;;;;;;;;;;5118176;28;20493;-70
2022/10/09 12:22:36;;;;;;;5.50;1.20;;;;;;;;;;5127478;27;20792;-71
2022/10/09 12:25:06;;;;;;;4.00;1.57;;;;;;;;;;5122708;27;21036;-70
2022/10/09 12:27:35;;;;;;;15.23;3.70;;;;;;;;;;5115394;28;20463;-70
2022/10/09 12:30:05;;;;;;;11.93;1.30;;;;;;;;;;5115301;28;20458;-71
2022/10/09 12:32:38;;;;;;;6.10;2.80;;;;;;;;;;5130905;27;20476;-70
2022/10/09 12:35:20;;;;;;;4.90;2.03;;;;;;;;;;5128645;27;20463;-72
2022/10/09 12:37:53;;;;;;;4.80;0.93;;;;;;;;;;5117567;28;20501;-71
2022/10/09 12:40:25;;;;;;;6.90;2.83;;;;;;;;;;5135263;27;20485;-71
2022/10/09 12:42:56;;;;;;;17.00;6.00;;;;;;;;;;5121405;28;21092;-71
2022/10/09 12:45:25;;;;;;;5.20;1.63;;;;;;;;;;5125832;27;20802;-71
2022/10/09 12:47:54;;;;;;;4.20;1.57;;;;;;;;;;5116819;27;20494;-72
2022/10/09 12:50:24;;;;;;;5.00;1.37;;;;;;;;;;5127054;28;20529;-71
2022/10/09 12:52:53;;;;;;;9.10;2.80;;;;;;;;;;5116962;27;20462;-71
2022/10/09 12:55:25;;;;;;;6.33;2.10;;;;;;;;;;5118409;27;20524;-71
2022/10/09 12:57:58;;;;;;;4.33;1.70;;;;;;;;;;5119020;28;20863;-70
2022/10/09 13:00:28;;;;;;;6.53;1.27;;;;;;;;;;5118077;28;21060;-71
2022/10/09 13:02:55;;;;;;;5.10;1.17;;;;;;;;;;5114763;28;20526;-72
2022/10/09 13:05:23;;;;;;;7.90;1.50;;;;;;;;;;5119806;28;20462;-71
2022/10/09 13:07:59;;;;;;;4.80;1.07;;;;;;;;;;5114902;28;20486;-72
2022/10/09 13:10:26;;;;;;;5.70;1.30;;;;;;;;;;5115909;28;20454;-72
2022/10/09 13:12:55;;;;;;;3.73;1.40;;;;;;;;;;5116112;28;20493;-71
2022/10/09 13:15:28;;;;;;;6.57;1.73;;;;;;;;;;5115515;28;20459;-71
2022/10/09 13:17:56;;;;;;;6.57;2.03;;;;;;;;;;5115502;28;20585;-71
2022/10/09 13:20:25;;;;;;;5.53;2.00;;;;;;;;;;5118470;27;20749;-70
2022/10/09 13:22:56;;;;;;;3.00;0.90;;;;;;;;;;5127367;27;20463;-71
2022/10/09 13:25:23;;;;;;;3.30;1.30;;;;;;;;;;5128092;28;20461;-71
2022/10/09 13:27:54;;;;;;;10.13;2.13;;;;;;;;;;5120086;27;20559;-71
2022/10/09 13:30:21;;;;;;;5.67;0.93;;;;;;;;;;5117658;28;20450;-71
2022/10/09 13:32:48;;;;;;;11.40;2.50;;;;;;;;;;5126281;27;21027;-71
2022/10/09 13:35:16;;;;;;;7.00;1.47;;;;;;;;;;5134184;27;20465;-72
2022/10/09 13:37:43;;;;;;;6.93;1.97;;;;;;;;;;5116175;28;20481;-72
2022/10/09 13:40:16;;;;;;;8.37;2.10;;;;;;;;;;5115190;28;20933;-72
2022/10/09 13:42:52;;;;;;;4.60;2.20;;;;;;;;;;5122460;27;20740;-71
2022/10/09 13:45:23;;;;;;;9.77;2.00;;;;;;;;;;5134734;27;20521;-72
2022/10/09 13:47:51;;;;;;;7.60;1.63;;;;;;;;;;5129306;27;20882;-71
2022/10/09 13:50:19;;;;;;;11.27;3.60;;;;;;;;;;5120763;28;20955;-70
2022/10/09 13:52:46;;;;;;;4.90;1.83;;;;;;;;;;5130262;27;20458;-71
2022/10/09 13:55:14;;;;;;;7.57;2.20;;;;;;;;;;5118993;28;20454;-70
2022/10/09 13:57:41;;;;;;;5.53;2.10;;;;;;;;;;5126258;27;20729;-71
2022/10/09 14:00:09;;;;;;;5.53;1.20;;;;;;;;;;5128164;27;20533;-70
2022/10/09 14:02:38;;;;;;;6.10;1.63;;;;;;;;;;5115118;28;20454;-71
2022/10/09 14:05:06;;;;;;;6.77;1.70;;;;;;;;;;5133616;27;20484;-71
2022/10/09 14:07:35;;;;;;;7.40;1.53;;;;;;;;;;5129303;27;20738;-72
2022/10/09 14:10:06;;;;;;;10.30;1.87;;;;;;;;;;5122095;27;20868;-70
2022/10/09 14:12:34;;;;;;;3.00;1.87;;;;;;;;;;5119224;27;20454;-71
2022/10/09 14:15:01;;;;;;;5.10;1.40;;;;;;;;;;5125008;27;20459;-70
2022/10/09 14:17:32;;;;;;;3.87;1.60;;;;;;;;;;5123430;27;20449;-70
2022/10/09 14:19:59;;;;;;;7.37;1.90;;;;;;;;;;5121048;28;20890;-70
2022/10/09 14:22:26;;;;;;;6.27;1.70;;;;;;;;;;5125310;27;20645;-70
2022/10/09 14:24:53;;;;;;;2.70;1.03;;;;;;;;;;5117400;28;20490;-70
2022/10/09 14:27:22;;;;;;;5.57;2.13;;;;;;;;;;5116243;28;20451;-70
2022/10/09 14:29:50;;;;;;;11.93;5.10;;;;;;;;;;5114630;28;20477;-70
2022/10/09 14:32:18;;;;;;;3.50;1.50;;;;;;;;;;5116102;27;20445;-71
2022/10/09 14:34:47;;;;;;;2.90;1.60;;;;;;;;;;5118707;28;20497;-71
2022/10/09 14:37:18;;;;;;;4.03;1.27;;;;;;;;;;5128479;27;20450;-71
2022/10/09 14:39:48;;;;;;;5.53;1.73;;;;;;;;;;5132917;27;20496;-70
2022/10/09 14:42:15;;;;;;;8.37;3.43;;;;;;;;;;5134987;27;20449;-70
2022/10/09 14:44:42;;;;;;;3.63;1.40;;;;;;;;;;5132576;27;20445;-70
2022/10/09 14:47:10;;;;;;;3.87;1.70;;;;;;;;;;5131149;27;20470;-70
2022/10/09 14:49:38;;;;;;;7.30;2.00;;;;;;;;;;5125838;27;20468;-70
2022/10/09 14:52:05;;;;;;;5.77;1.37;;;;;;;;;;5129145;27;20473;-71